createdAt,value
2022-08-26T00:01:15.762Z,5.30
2022-08-26T00:03:42.097Z,5.30
2022-08-26T00:06:09.614Z,4.90
2022-08-26T00:08:39.000Z,5.40
2022-08-26T00:11:08.689Z,5.30
2022-08-26T00:13:36.433Z,5.20
2022-08-26T00:16:04.112Z,5.00
2022-08-26T00:18:30.946Z,5.40
2022-08-26T00:21:06.469Z,5.00
2022-08-26T00:23:33.292Z,5.10
2022-08-26T00:26:01.625Z,6.40
2022-08-26T00:28:27.887Z,4.70
2022-08-26T00:30:54.546Z,6.20
2022-08-26T00:33:22.244Z,5.40
2022-08-26T00:35:49.175Z,5.00
2022-08-26T00:38:18.070Z,4.50
2022-08-26T00:40:48.313Z,4.90
2022-08-26T00:43:15.748Z,4.90
2022-08-26T00:45:48.456Z,5.00
2022-08-26T00:48:18.408Z,4.90
2022-08-26T00:51:01.087Z,5.00
2022-08-26T00:53:31.410Z,5.20
2022-08-26T00:56:04.464Z,5.50
2022-08-26T00:58:33.631Z,5.30
2022-08-26T01:01:00.847Z,5.00
2022-08-26T01:03:30.614Z,5.70
2022-08-26T01:05:59.961Z,5.40
2022-08-26T01:08:26.704Z,5.40
2022-08-26T01:10:56.808Z,4.50
2022-08-26T01:13:24.814Z,5.40
2022-08-26T01:15:55.934Z,5.80
2022-08-26T01:18:24.840Z,5.30
2022-08-26T01:21:15.116Z,5.60
2022-08-26T01:23:49.599Z,4.70
2022-08-26T01:26:21.448Z,4.80
2022-08-26T01:28:51.526Z,4.50
2022-08-26T01:31:21.764Z,5.70
2022-08-26T01:34:11.635Z,5.40
2022-08-26T01:36:38.684Z,4.80
2022-08-26T01:39:07.319Z,5.00
2022-08-26T01:41:37.616Z,4.80
2022-08-26T01:44:08.069Z,5.10
2022-08-26T01:46:37.148Z,4.70
2022-08-26T01:49:06.577Z,5.10
2022-08-26T01:51:39.066Z,5.00
2022-08-26T01:54:08.489Z,5.00
2022-08-26T01:56:39.386Z,5.00
2022-08-26T01:59:11.092Z,5.10
2022-08-26T02:01:38.849Z,4.90
2022-08-26T02:04:14.465Z,4.90
2022-08-26T02:09:08.204Z,5.10
2022-08-26T02:11:36.863Z,4.60
2022-08-26T02:14:11.091Z,5.30
2022-08-26T02:16:42.819Z,5.20
2022-08-26T02:19:17.024Z,5.00
2022-08-26T02:21:46.337Z,5.20
2022-08-26T02:24:22.645Z,5.30
2022-08-26T02:26:51.283Z,5.00
2022-08-26T02:29:26.187Z,5.20
2022-08-26T02:31:55.547Z,4.60
2022-08-26T02:34:28.230Z,5.10
2022-08-26T02:37:00.757Z,5.00
2022-08-26T02:39:29.309Z,4.70
2022-08-26T02:41:57.646Z,4.70
2022-08-26T02:44:23.769Z,5.50
2022-08-26T02:46:54.330Z,5.00
2022-08-26T02:49:23.110Z,5.20
2022-08-26T02:51:50.068Z,4.70
2022-08-26T02:54:20.899Z,4.70
2022-08-26T02:56:47.630Z,4.70
2022-08-26T02:59:13.983Z,5.20
2022-08-26T03:01:40.709Z,5.30
2022-08-26T03:04:09.873Z,5.00
2022-08-26T03:06:37.579Z,5.40
2022-08-26T03:09:05.384Z,5.00
2022-08-26T03:11:33.121Z,5.50
2022-08-26T03:14:00.738Z,4.90
2022-08-26T03:16:34.750Z,4.90
2022-08-26T03:19:04.120Z,5.60
2022-08-26T03:21:30.762Z,4.80
2022-08-26T03:23:58.632Z,5.40
2022-08-26T03:26:26.867Z,4.90
2022-08-26T03:29:13.559Z,5.40
2022-08-26T03:31:40.563Z,5.50
2022-08-26T03:34:07.462Z,5.40
2022-08-26T03:36:35.043Z,5.40
2022-08-26T03:39:02.190Z,5.60
2022-08-26T03:41:32.081Z,4.70
2022-08-26T03:44:01.651Z,5.50
2022-08-26T03:46:28.582Z,5.00
2022-08-26T03:48:55.421Z,5.40
2022-08-26T03:51:21.528Z,4.90
2022-08-26T03:53:47.755Z,5.70
2022-08-26T03:56:14.973Z,5.90
2022-08-26T03:58:42.779Z,5.70
2022-08-26T04:01:10.565Z,6.00
2022-08-26T04:04:03.185Z,5.50
2022-08-26T04:06:33.553Z,5.90
2022-08-26T04:09:04.818Z,6.10
2022-08-26T04:11:34.384Z,5.60
2022-08-26T04:14:05.139Z,5.70
2022-08-26T04:16:31.818Z,5.80
2022-08-26T04:18:58.513Z,5.50
2022-08-26T04:21:26.343Z,5.80
2022-08-26T04:23:53.697Z,6.10
2022-08-26T04:26:22.557Z,6.10
2022-08-26T04:28:52.677Z,5.80
2022-08-26T04:31:19.566Z,5.60
2022-08-26T04:33:49.625Z,6.20
2022-08-26T04:36:17.026Z,5.50
2022-08-26T04:38:45.761Z,6.50
2022-08-26T04:41:15.661Z,5.50
2022-08-26T04:43:46.421Z,5.50
2022-08-26T04:46:15.982Z,5.20
2022-08-26T04:48:43.008Z,5.90
2022-08-26T04:51:10.325Z,6.00
2022-08-26T04:53:37.222Z,6.20
2022-08-26T04:56:04.450Z,5.10
2022-08-26T04:58:31.788Z,5.20
2022-08-26T05:00:58.242Z,6.20
2022-08-26T05:03:26.960Z,6.20
2022-08-26T05:05:53.906Z,5.60
2022-08-26T05:08:22.934Z,5.80
2022-08-26T05:10:55.597Z,5.80
2022-08-26T05:13:24.490Z,6.30
2022-08-26T05:15:50.712Z,5.90
2022-08-26T05:18:20.747Z,5.90
2022-08-26T05:20:49.890Z,5.60
2022-08-26T05:23:17.798Z,5.80
2022-08-26T05:25:47.561Z,5.90
2022-08-26T05:28:15.676Z,6.00
2022-08-26T05:30:42.198Z,5.30
2022-08-26T05:33:11.870Z,5.50
2022-08-26T05:35:39.145Z,5.20
2022-08-26T05:38:12.796Z,5.90
2022-08-26T05:40:43.906Z,5.40
2022-08-26T05:43:12.864Z,5.90
2022-08-26T05:45:45.998Z,5.80
2022-08-26T05:48:14.531Z,5.70
2022-08-26T05:50:47.069Z,5.60
2022-08-26T05:53:16.364Z,5.80
2022-08-26T05:55:49.644Z,6.10
2022-08-26T05:58:17.395Z,5.10
2022-08-26T06:00:44.712Z,5.80
2022-08-26T06:03:11.208Z,5.50
2022-08-26T06:05:39.959Z,5.80
2022-08-26T06:08:13.933Z,5.80
2022-08-26T06:10:53.052Z,5.70
2022-08-26T06:13:23.336Z,5.70
2022-08-26T06:15:51.016Z,6.60
2022-08-26T06:18:21.820Z,5.20
2022-08-26T06:20:56.988Z,5.70
2022-08-26T06:23:46.271Z,5.60
2022-08-26T06:26:15.361Z,5.40
2022-08-26T06:28:43.650Z,6.00
2022-08-26T06:31:12.794Z,6.00
2022-08-26T06:33:39.280Z,5.90
2022-08-26T06:36:06.375Z,6.10
2022-08-26T06:38:32.804Z,6.10
2022-08-26T06:40:59.844Z,5.80
2022-08-26T06:43:29.174Z,6.70
2022-08-26T06:46:04.981Z,5.20
2022-08-26T06:48:32.126Z,6.40
2022-08-26T06:51:02.840Z,6.00
2022-08-26T06:53:28.938Z,5.80
2022-08-26T06:55:55.373Z,6.10
2022-08-26T06:58:23.124Z,5.40
2022-08-26T07:00:51.030Z,5.10
2022-08-26T07:03:17.785Z,5.60
2022-08-26T07:05:44.632Z,5.20
2022-08-26T07:08:12.018Z,4.80
2022-08-26T07:10:38.438Z,4.90
2022-08-26T07:13:06.119Z,5.70
2022-08-26T07:15:35.711Z,4.60
2022-08-26T07:18:02.574Z,4.80
2022-08-26T07:20:28.771Z,4.90
2022-08-26T07:22:54.964Z,4.60
2022-08-26T07:25:21.044Z,4.90
2022-08-26T07:27:54.502Z,4.30
2022-08-26T07:30:21.032Z,4.70
2022-08-26T07:32:47.820Z,5.10
2022-08-26T07:35:15.280Z,4.60
2022-08-26T07:37:42.430Z,4.50
2022-08-26T07:40:09.432Z,4.60
2022-08-26T07:42:35.703Z,5.20
2022-08-26T07:45:01.941Z,4.70
2022-08-26T07:47:28.107Z,5.30
2022-08-26T07:49:57.111Z,5.00
2022-08-26T07:52:28.216Z,4.70
2022-08-26T07:55:00.415Z,4.70
2022-08-26T07:57:28.634Z,4.40
2022-08-26T07:59:55.795Z,5.40
2022-08-26T08:02:23.294Z,4.60
2022-08-26T08:04:49.640Z,4.50
2022-08-26T08:07:16.409Z,4.60
2022-08-26T08:09:42.488Z,4.50
2022-08-26T08:12:09.034Z,4.60
2022-08-26T08:14:44.677Z,4.60
2022-08-26T08:19:43.262Z,4.80
2022-08-26T08:22:17.927Z,4.80
2022-08-26T08:24:49.685Z,4.90
2022-08-26T08:27:19.129Z,4.90
2022-08-26T08:29:47.902Z,4.70
2022-08-26T08:32:15.434Z,4.80
2022-08-26T08:37:13.045Z,4.40
2022-08-26T08:39:39.180Z,4.70
2022-08-26T08:42:27.888Z,4.70
2022-08-26T08:44:58.866Z,4.30
2022-08-26T08:47:42.563Z,4.60
2022-08-26T08:50:20.880Z,4.90
2022-08-26T08:53:01.855Z,4.40
2022-08-26T08:55:36.105Z,4.90
2022-08-26T08:58:12.874Z,4.70
2022-08-26T09:01:04.784Z,5.00
2022-08-26T09:03:55.371Z,4.40
2022-08-26T09:06:21.585Z,4.50
2022-08-26T09:08:50.569Z,4.80
2022-08-26T09:11:20.003Z,5.00
2022-08-26T09:13:51.167Z,4.60
2022-08-26T09:16:27.067Z,4.80
2022-08-26T09:19:05.567Z,5.20
2022-08-26T09:21:32.240Z,3.80
2022-08-26T09:23:59.243Z,4.40
2022-08-26T09:26:40.687Z,4.90
2022-08-26T09:29:24.360Z,4.40
2022-08-26T09:31:52.334Z,3.90
2022-08-26T09:34:25.989Z,4.90
2022-08-26T09:36:59.203Z,4.40
2022-08-26T09:39:28.691Z,4.20
2022-08-26T09:42:04.031Z,3.90
2022-08-26T09:44:31.224Z,4.50
2022-08-26T09:47:01.424Z,4.30
2022-08-26T09:49:36.306Z,3.40
2022-08-26T09:52:25.497Z,4.20
2022-08-26T09:55:22.559Z,3.80
2022-08-26T09:57:54.542Z,3.70
2022-08-26T10:00:57.068Z,4.10
2022-08-26T10:03:28.256Z,4.20
2022-08-26T10:06:02.273Z,4.30
2022-08-26T10:08:33.296Z,3.60
2022-08-26T10:11:11.087Z,4.30
2022-08-26T10:13:42.582Z,3.80
2022-08-26T10:16:20.836Z,3.90
2022-08-26T10:19:09.021Z,4.20
2022-08-26T10:21:38.598Z,4.90
2022-08-26T10:24:07.642Z,4.10
2022-08-26T10:26:44.068Z,4.80
2022-08-26T10:29:27.780Z,3.90
2022-08-26T10:32:02.647Z,3.60
2022-08-26T10:34:33.658Z,4.20
2022-08-26T10:37:13.712Z,4.20
2022-08-26T10:39:49.221Z,4.60
2022-08-26T10:42:34.702Z,4.00
2022-08-26T10:45:24.868Z,3.90
2022-08-26T10:48:05.246Z,4.40
2022-08-26T10:50:35.461Z,4.20
2022-08-26T10:53:25.015Z,4.20
2022-08-26T10:56:04.192Z,4.00
2022-08-26T10:59:12.217Z,4.10
2022-08-26T11:01:57.914Z,4.00
2022-08-26T11:04:45.617Z,3.70
2022-08-26T11:07:38.935Z,4.10
2022-08-26T11:10:12.239Z,4.00
2022-08-26T11:12:41.733Z,3.60
2022-08-26T11:15:24.706Z,4.10
2022-08-26T11:17:51.000Z,4.00
2022-08-26T11:20:23.719Z,4.40
2022-08-26T11:22:51.837Z,3.80
2022-08-26T11:25:19.943Z,4.00
2022-08-26T11:27:50.424Z,4.10
2022-08-26T11:30:18.357Z,4.50
2022-08-26T11:32:52.017Z,4.30
2022-08-26T11:35:18.816Z,4.00
2022-08-26T11:37:59.961Z,3.90
2022-08-26T11:40:29.140Z,3.80
2022-08-26T11:43:29.841Z,4.00
2022-08-26T11:46:11.593Z,4.40
2022-08-26T11:48:41.507Z,3.60
2022-08-26T11:51:20.224Z,4.80
2022-08-26T11:53:47.072Z,3.90
2022-08-26T11:56:27.356Z,3.90
2022-08-26T11:59:00.584Z,4.00
2022-08-26T12:01:39.635Z,3.90
2022-08-26T12:04:10.229Z,3.80
2022-08-26T12:06:49.744Z,3.70
2022-08-26T12:09:29.710Z,3.90
2022-08-26T12:12:15.136Z,4.30
2022-08-26T12:14:42.296Z,3.60
2022-08-26T12:17:10.118Z,3.70
2022-08-26T12:19:36.868Z,3.90
2022-08-26T12:22:18.416Z,3.60
2022-08-26T12:24:59.156Z,3.80
2022-08-26T12:27:28.394Z,3.80
2022-08-26T12:30:14.796Z,4.60
2022-08-26T12:32:50.996Z,4.00
2022-08-26T12:35:25.039Z,3.60
2022-08-26T12:37:53.513Z,4.20
2022-08-26T12:40:46.343Z,4.10
2022-08-26T12:43:34.345Z,3.60
2022-08-26T12:46:01.189Z,3.70
2022-08-26T12:48:32.377Z,3.20
2022-08-26T12:51:00.243Z,4.00
2022-08-26T12:53:33.025Z,3.70
2022-08-26T12:56:04.087Z,3.20
2022-08-26T12:58:37.777Z,3.10
2022-08-26T13:01:04.217Z,3.10
2022-08-26T13:03:33.363Z,2.90
2022-08-26T13:06:15.650Z,3.10
2022-08-26T13:08:47.762Z,3.10
2022-08-26T13:11:21.735Z,3.20
2022-08-26T13:13:51.406Z,3.10
2022-08-26T13:16:19.802Z,3.40
2022-08-26T13:18:51.943Z,3.90
2022-08-26T13:21:24.705Z,6.10
2022-08-26T13:23:51.951Z,3.30
2022-08-26T13:26:19.315Z,3.10
2022-08-26T13:28:48.631Z,3.60
2022-08-26T13:31:30.810Z,3.30
2022-08-26T13:33:57.105Z,3.60
2022-08-26T13:36:23.455Z,4.00
2022-08-26T13:38:52.097Z,3.50
2022-08-26T13:41:29.612Z,3.80
2022-08-26T13:43:58.806Z,4.40
2022-08-26T13:46:26.770Z,3.70
2022-08-26T13:48:54.080Z,3.90
2022-08-26T13:51:22.349Z,3.90
2022-08-26T13:53:49.943Z,3.50
2022-08-26T13:56:16.350Z,4.30
2022-08-26T13:58:42.991Z,4.00
2022-08-26T14:01:16.595Z,4.00
2022-08-26T14:03:44.715Z,4.60
2022-08-26T14:06:11.831Z,4.60
2022-08-26T14:08:40.609Z,4.40
2022-08-26T14:11:07.999Z,4.60
2022-08-26T14:13:34.476Z,4.50
2022-08-26T14:16:03.104Z,4.70
2022-08-26T14:18:39.713Z,4.30
2022-08-26T14:21:12.211Z,4.40
2022-08-26T14:23:39.688Z,4.80
2022-08-26T14:26:07.890Z,4.90
2022-08-26T14:28:35.104Z,5.10
2022-08-26T14:31:03.188Z,4.40
2022-08-26T14:33:37.692Z,4.80
2022-08-26T14:36:24.149Z,6.40
2022-08-26T14:38:50.559Z,5.10
2022-08-26T14:41:18.466Z,5.70
2022-08-26T14:43:49.539Z,5.30
2022-08-26T14:46:17.476Z,5.20
2022-08-26T14:48:44.457Z,5.20
2022-08-26T14:51:10.723Z,7.20
2022-08-26T14:53:55.762Z,4.90
2022-08-26T14:58:48.825Z,5.00
2022-08-26T15:01:15.613Z,4.60
2022-08-26T15:03:42.241Z,4.40
2022-08-26T15:06:17.147Z,4.50
2022-08-26T15:08:43.397Z,4.70
2022-08-26T15:11:09.947Z,4.60
2022-08-26T15:13:36.104Z,4.20
2022-08-26T15:16:02.624Z,5.10
2022-08-26T15:18:29.071Z,5.30
2022-08-26T15:20:55.289Z,4.70
2022-08-26T15:23:21.659Z,4.90
2022-08-26T15:25:48.294Z,4.70
2022-08-26T15:28:14.574Z,5.20
2022-08-26T15:30:41.339Z,4.90
2022-08-26T15:33:07.633Z,4.70
2022-08-26T15:35:43.174Z,4.60
2022-08-26T15:38:10.658Z,5.50
2022-08-26T15:40:37.236Z,4.60
2022-08-26T15:43:25.417Z,5.10
2022-08-26T15:45:50.989Z,4.90
2022-08-26T15:48:17.117Z,5.10
2022-08-26T15:50:58.384Z,5.10
2022-08-26T15:53:25.837Z,4.30
2022-08-26T15:55:56.459Z,5.00
2022-08-26T15:58:24.317Z,4.90
2022-08-26T16:00:54.164Z,4.40
2022-08-26T16:03:20.699Z,4.60
2022-08-26T16:05:47.210Z,4.10
2022-08-26T16:08:15.015Z,4.50
2022-08-26T16:10:50.043Z,5.50
2022-08-26T16:13:18.418Z,4.20
2022-08-26T16:15:47.530Z,4.80
2022-08-26T16:18:15.052Z,4.50
2022-08-26T16:20:55.212Z,4.40
2022-08-26T16:26:12.617Z,4.40
2022-08-26T16:28:38.777Z,4.40
2022-08-26T16:31:06.461Z,4.50
2022-08-26T16:33:32.928Z,4.50
2022-08-26T16:35:59.276Z,4.50
2022-08-26T16:38:25.395Z,5.00
2022-08-26T16:40:51.615Z,5.40
2022-08-26T16:43:17.985Z,10.60
2022-08-26T16:45:44.216Z,9.60
2022-08-26T16:48:11.203Z,6.70
2022-08-26T16:50:40.253Z,4.60
2022-08-26T16:53:06.509Z,4.60
2022-08-26T16:55:32.857Z,5.20
2022-08-26T16:57:59.173Z,4.10
2022-08-26T17:00:28.925Z,4.30
2022-08-26T17:02:57.109Z,4.80
2022-08-26T17:05:24.743Z,4.20
2022-08-26T17:07:52.973Z,4.60
2022-08-26T17:10:21.549Z,4.70
2022-08-26T17:12:48.595Z,4.70
2022-08-26T17:15:16.305Z,4.40
2022-08-26T17:17:43.814Z,5.20
2022-08-26T17:20:13.291Z,4.10
2022-08-26T17:22:43.391Z,5.20
2022-08-26T17:25:13.058Z,4.30
2022-08-26T17:27:40.368Z,5.10
2022-08-26T17:30:07.398Z,4.50
2022-08-26T17:32:33.634Z,6.50
2022-08-26T17:35:01.065Z,5.40
2022-08-26T17:37:27.870Z,4.50
2022-08-26T17:39:54.271Z,5.50
2022-08-26T17:42:20.546Z,4.60
2022-08-26T17:44:57.962Z,5.40
2022-08-26T17:47:24.163Z,4.80
2022-08-26T17:49:50.413Z,5.30
2022-08-26T17:52:16.880Z,4.80
2022-08-26T17:54:43.072Z,4.50
2022-08-26T17:57:10.643Z,5.00
2022-08-26T17:59:38.218Z,5.30
2022-08-26T18:02:07.330Z,5.00
2022-08-26T18:04:33.705Z,4.90
2022-08-26T18:07:00.945Z,5.50
2022-08-26T18:09:30.750Z,5.60
2022-08-26T18:11:57.796Z,5.30
2022-08-26T18:14:24.033Z,5.80
2022-08-26T18:16:50.564Z,5.60
2022-08-26T18:19:16.962Z,5.40
2022-08-26T18:21:44.222Z,5.50
2022-08-26T18:24:13.976Z,5.50
2022-08-26T18:26:47.534Z,5.90
2022-08-26T18:29:15.851Z,6.20
2022-08-26T18:31:42.593Z,5.30
2022-08-26T18:34:12.385Z,5.50
2022-08-26T18:36:39.807Z,5.20
2022-08-26T18:39:07.689Z,5.60
2022-08-26T18:41:44.136Z,6.00
2022-08-26T18:44:13.799Z,6.00
2022-08-26T18:46:40.644Z,5.70
2022-08-26T18:49:07.780Z,6.60
2022-08-26T18:51:34.557Z,7.00
2022-08-26T18:54:04.034Z,6.00
2022-08-26T18:56:30.924Z,6.50
2022-08-26T18:58:58.578Z,6.90
2022-08-26T19:01:27.689Z,6.20
2022-08-26T19:03:55.601Z,5.70
2022-08-26T19:06:23.375Z,6.50
2022-08-26T19:08:50.243Z,6.50
2022-08-26T19:11:18.482Z,6.40
2022-08-26T19:14:00.905Z,6.30
2022-08-26T19:16:28.456Z,6.10
2022-08-26T19:18:55.705Z,6.60
2022-08-26T19:21:22.801Z,6.70
2022-08-26T19:23:49.864Z,7.20
2022-08-26T19:26:16.289Z,6.50
2022-08-26T19:28:42.874Z,6.60
2022-08-26T19:31:12.036Z,6.90
2022-08-26T19:33:41.319Z,6.60
2022-08-26T19:36:14.120Z,6.40
2022-08-26T19:38:42.313Z,6.80
2022-08-26T19:41:11.963Z,6.60
2022-08-26T19:43:38.610Z,7.20
2022-08-26T19:46:12.881Z,7.30
2022-08-26T19:48:43.926Z,7.20
2022-08-26T19:51:20.030Z,6.60
2022-08-26T19:53:49.175Z,6.80
2022-08-26T19:56:16.590Z,6.70
2022-08-26T19:58:43.939Z,6.90
2022-08-26T20:01:10.820Z,7.20
2022-08-26T20:03:38.297Z,8.60
2022-08-26T20:06:06.792Z,7.80
2022-08-26T20:08:34.685Z,7.70
2022-08-26T20:11:04.927Z,7.40
2022-08-26T20:13:32.839Z,7.60
2022-08-26T20:15:59.068Z,7.10
2022-08-26T20:18:43.922Z,8.20
2022-08-26T20:21:25.856Z,7.50
2022-08-26T20:23:54.621Z,7.20
2022-08-26T20:26:20.848Z,7.30
2022-08-26T20:28:47.172Z,7.30
2022-08-26T20:31:18.699Z,7.50
2022-08-26T20:33:47.579Z,6.60
2022-08-26T20:36:15.535Z,7.40
2022-08-26T20:38:42.057Z,6.90
2022-08-26T20:41:08.363Z,8.10
2022-08-26T20:43:34.627Z,7.00
2022-08-26T20:46:00.836Z,7.20
2022-08-26T20:48:27.209Z,7.10
2022-08-26T20:50:58.537Z,7.20
2022-08-26T20:53:26.422Z,7.80
2022-08-26T20:55:53.425Z,7.20
2022-08-26T20:58:22.810Z,6.80
2022-08-26T21:01:19.809Z,7.60
2022-08-26T21:03:48.208Z,7.00
2022-08-26T21:06:15.725Z,8.10
2022-08-26T21:08:43.255Z,7.20
2022-08-26T21:11:11.786Z,7.30
2022-08-26T21:14:03.408Z,7.30
2022-08-26T21:16:27.674Z,7.40
2022-08-26T21:18:54.574Z,7.30
2022-08-26T21:21:25.195Z,7.00
2022-08-26T21:23:52.382Z,6.70
2022-08-26T21:26:20.138Z,6.70
2022-08-26T21:28:48.931Z,7.50
2022-08-26T21:31:20.278Z,7.10
2022-08-26T21:33:48.293Z,7.00
2022-08-26T21:36:15.963Z,7.50
2022-08-26T21:38:43.260Z,7.20
2022-08-26T21:41:14.289Z,7.40
2022-08-26T21:43:43.304Z,6.90
2022-08-26T21:46:16.331Z,7.30
2022-08-26T21:48:50.973Z,6.40
2022-08-26T21:51:20.869Z,6.80
2022-08-26T21:53:48.437Z,7.20
2022-08-26T21:56:18.537Z,6.60
2022-08-26T21:58:45.955Z,7.00
2022-08-26T22:01:17.477Z,7.00
2022-08-26T22:03:46.852Z,6.80
2022-08-26T22:06:21.033Z,6.40
2022-08-26T22:08:48.210Z,6.50
2022-08-26T22:11:16.095Z,6.50
2022-08-26T22:13:43.839Z,6.70
2022-08-26T22:16:11.903Z,6.60
2022-08-26T22:18:40.199Z,6.60
2022-08-26T22:21:11.273Z,6.80
2022-08-26T22:23:39.281Z,6.50
2022-08-26T22:26:08.199Z,6.50
2022-08-26T22:28:36.097Z,6.40
2022-08-26T22:31:03.693Z,6.30
2022-08-26T22:33:30.619Z,7.00
2022-08-26T22:35:57.649Z,7.40
2022-08-26T22:38:24.607Z,6.60
2022-08-26T22:40:57.546Z,6.10
2022-08-26T22:43:25.853Z,6.30
2022-08-26T22:45:53.829Z,7.00
2022-08-26T22:48:24.168Z,6.40
2022-08-26T22:50:56.137Z,6.10
2022-08-26T22:53:25.397Z,6.80
2022-08-26T22:55:52.244Z,6.20
2022-08-26T22:58:19.320Z,6.20
2022-08-26T23:00:48.178Z,6.60
2022-08-26T23:03:17.223Z,6.30
2022-08-26T23:05:45.621Z,6.10
2022-08-26T23:08:14.150Z,7.20
2022-08-26T23:10:43.681Z,6.70
2022-08-26T23:13:11.382Z,6.40
2022-08-26T23:15:39.425Z,7.10
2022-08-26T23:18:06.709Z,7.60
2022-08-26T23:20:33.906Z,6.80
2022-08-26T23:23:00.800Z,6.90
2022-08-26T23:25:29.783Z,6.60
2022-08-26T23:27:57.445Z,7.60
2022-08-26T23:30:26.969Z,6.80
2022-08-26T23:32:54.845Z,7.10
2022-08-26T23:35:22.359Z,7.20
2022-08-26T23:37:53.254Z,6.50
2022-08-26T23:40:33.991Z,6.70
2022-08-26T23:43:03.667Z,7.10
2022-08-26T23:45:32.184Z,7.50
2022-08-26T23:47:59.498Z,7.40
2022-08-26T23:50:48.317Z,6.60
2022-08-26T23:53:22.225Z,7.20
2022-08-26T23:55:52.306Z,7.30
2022-08-26T23:58:21.358Z,7.10
